Time;durP1;ratioP1;P1;durP2;ratioP2;P2;SDS_P1;SDS_P2;PMS_P1;PMS_P2;Temp;Humidity;BMP_temperature;BMP_pressure;BME280_temperature;BME280_humidity;BME280_pressure;Samples;Min_cycle;Max_cycle;Signal;HPM_P1;HPM_P2
2022/01/09 00:02:02;;;;;;;11.57;7.72;;;5.20;99.90;;;;;;4989710;28;20489;-60
2022/01/09 00:04:28;;;;;;;10.30;6.95;;;5.10;99.90;;;;;;4989947;28;20049;-61
2022/01/09 00:06:53;;;;;;;10.30;7.30;;;5.10;99.90;;;;;;4993618;28;20034;-61
2022/01/09 00:09:19;;;;;;;9.75;6.95;;;5.10;99.90;;;;;;4996526;28;20680;-61
2022/01/09 00:11:44;;;;;;;10.30;7.20;;;5.20;99.90;;;;;;4996212;28;20038;-61
2022/01/09 00:14:10;;;;;;;12.32;8.32;;;5.10;99.90;;;;;;4996271;28;20518;-61
2022/01/09 00:16:35;;;;;;;12.25;8.63;;;5.10;99.90;;;;;;4996363;28;20114;-61
2022/01/09 00:19:01;;;;;;;10.85;8.23;;;5.10;99.90;;;;;;4996447;28;20041;-61
2022/01/09 00:21:27;;;;;;;11.75;8.35;;;5.10;99.90;;;;;;4996129;28;20073;-60
2022/01/09 00:23:52;;;;;;;11.70;8.13;;;5.10;99.90;;;;;;4996122;28;20101;-61
2022/01/09 00:26:18;;;;;;;11.07;8.25;;;5.10;99.90;;;;;;4996484;28;20121;-61
2022/01/09 00:28:43;;;;;;;10.68;7.75;;;5.00;99.90;;;;;;4996244;28;20046;-61
2022/01/09 00:31:09;;;;;;;10.93;7.93;;;5.00;99.90;;;;;;4995823;28;20038;-61
2022/01/09 00:33:34;;;;;;;10.43;7.75;;;5.00;99.90;;;;;;4996107;28;20115;-61
2022/01/09 00:36:00;;;;;;;11.82;8.20;;;5.00;99.90;;;;;;4996381;28;20039;-61
2022/01/09 00:38:26;;;;;;;11.88;8.48;;;5.00;99.90;;;;;;4996475;28;20049;-61
2022/01/09 00:40:51;;;;;;;10.85;7.93;;;5.00;99.90;;;;;;4978474;28;20054;-61
2022/01/09 00:43:17;;;;;;;13.68;8.77;;;5.10;99.90;;;;;;4995865;28;20041;-61
2022/01/09 00:45:42;;;;;;;11.05;8.25;;;5.10;99.90;;;;;;4996035;28;20593;-61
2022/01/09 00:48:08;;;;;;;11.95;8.57;;;5.10;99.90;;;;;;4996117;28;20406;-61
2022/01/09 00:50:36;;;;;;;11.23;7.72;;;5.10;99.90;;;;;;4978260;28;20076;-61
2022/01/09 00:53:03;;;;;;;11.80;8.23;;;5.10;99.90;;;;;;4995837;28;20047;-60
2022/01/09 00:55:29;;;;;;;11.68;8.82;;;5.10;99.90;;;;;;4995897;28;20383;-61
2022/01/09 00:57:54;;;;;;;12.70;8.77;;;5.10;99.90;;;;;;4996052;28;20045;-61
2022/01/09 01:00:20;;;;;;;11.18;8.45;;;5.10;99.90;;;;;;4995649;28;20554;-61
2022/01/09 01:02:45;;;;;;;12.23;8.82;;;5.10;99.90;;;;;;4995985;28;20052;-61
2022/01/09 01:05:11;;;;;;;12.80;9.05;;;5.10;99.90;;;;;;4996136;28;20042;-61
2022/01/09 01:07:37;;;;;;;12.80;8.88;;;5.10;99.90;;;;;;4978610;28;20070;-61
2022/01/09 01:10:03;;;;;;;14.75;10.30;;;5.10;99.90;;;;;;4995730;28;20069;-61
2022/01/09 01:12:30;;;;;;;14.98;11.52;;;5.10;99.90;;;;;;4995728;28;20043;-61
2022/01/09 01:14:56;;;;;;;17.58;11.70;;;5.10;99.90;;;;;;4995784;28;20518;-61
2022/01/09 01:17:23;;;;;;;16.60;12.23;;;5.10;99.90;;;;;;4995231;28;20072;-61
2022/01/09 01:19:49;;;;;;;19.40;13.95;;;5.10;99.90;;;;;;4991951;28;20034;-61
2022/01/09 01:22:16;;;;;;;19.02;13.85;;;5.10;99.90;;;;;;4992492;28;20042;-61
2022/01/09 01:24:42;;;;;;;20.55;15.05;;;5.00;99.90;;;;;;4992521;28;20046;-61
2022/01/09 01:27:09;;;;;;;24.30;15.40;;;5.00;99.90;;;;;;4992830;28;20034;-61
2022/01/09 01:29:35;;;;;;;24.63;16.95;;;5.00;99.90;;;;;;4992527;28;20035;-61
2022/01/09 01:32:01;;;;;;;24.80;17.15;;;5.00;99.90;;;;;;4992543;28;20042;-62
2022/01/09 01:34:27;;;;;;;26.38;17.52;;;5.00;99.90;;;;;;4992471;28;20125;-61
2022/01/09 01:36:52;;;;;;;23.55;16.10;;;5.00;99.90;;;;;;4992742;28;20044;-61
2022/01/09 01:39:18;;;;;;;24.42;17.52;;;5.00;99.90;;;;;;4992444;28;20045;-61
2022/01/09 01:41:43;;;;;;;25.65;16.25;;;5.00;99.90;;;;;;4992106;28;20038;-61
2022/01/09 01:44:11;;;;;;;25.08;17.55;;;5.00;99.90;;;;;;4991890;28;20038;-61
2022/01/09 01:46:37;;;;;;;26.77;17.65;;;5.00;99.90;;;;;;4992521;28;20042;-62
2022/01/09 01:49:03;;;;;;;23.42;16.13;;;5.00;99.90;;;;;;4992521;28;20560;-61
2022/01/09 01:51:30;;;;;;;24.75;16.73;;;5.00;99.90;;;;;;4992165;28;20046;-61
2022/01/09 01:53:57;;;;;;;24.92;16.05;;;5.00;99.90;;;;;;4992043;28;20047;-61
2022/01/09 01:56:23;;;;;;;24.35;15.88;;;5.00;99.90;;;;;;4992044;28;20069;-62
2022/01/09 01:58:50;;;;;;;27.63;18.20;;;5.00;99.90;;;;;;4992105;28;20045;-61
2022/01/09 02:01:16;;;;;;;29.60;20.65;;;5.00;99.90;;;;;;4991970;28;20038;-61
2022/01/09 02:03:42;;;;;;;27.42;17.83;;;5.00;99.90;;;;;;4991657;28;20070;-61
2022/01/09 02:06:08;;;;;;;27.35;17.92;;;5.00;99.90;;;;;;4992021;28;20042;-61
2022/01/09 02:08:33;;;;;;;26.67;17.23;;;5.00;99.90;;;;;;4991852;28;20121;-61
2022/01/09 02:10:59;;;;;;;27.75;17.40;;;5.00;99.90;;;;;;4991704;28;20038;-60
2022/01/09 02:13:25;;;;;;;25.85;15.68;;;5.10;99.90;;;;;;4991615;28;20035;-60
2022/01/09 02:15:56;;;;;;;26.95;16.33;;;5.10;99.90;;;;;;4974203;28;20053;-61
2022/01/09 02:18:22;;;;;;;24.88;16.00;;;5.10;99.90;;;;;;4992062;28;20117;-61
2022/01/09 02:20:50;;;;;;;26.00;15.50;;;5.10;99.90;;;;;;4991701;28;20499;-61
2022/01/09 02:23:17;;;;;;;23.65;14.45;;;5.10;99.90;;;;;;4973789;28;20042;-60
2022/01/09 02:25:44;;;;;;;21.33;13.85;;;5.10;99.90;;;;;;4991499;28;20089;-61
2022/01/09 02:28:11;;;;;;;19.60;11.73;;;5.10;99.90;;;;;;4991674;28;20153;-60
2022/01/09 02:30:38;;;;;;;17.45;11.30;;;5.10;99.90;;;;;;4991246;28;20042;-61
2022/01/09 02:33:07;;;;;;;16.77;10.73;;;5.20;99.90;;;;;;4973715;28;20462;-62
2022/01/09 02:35:33;;;;;;;19.15;10.95;;;5.20;99.90;;;;;;4991190;28;20414;-61
2022/01/09 02:37:59;;;;;;;16.27;10.45;;;5.30;99.90;;;;;;4991250;28;20045;-60
2022/01/09 02:40:24;;;;;;;17.00;11.15;;;5.20;99.90;;;;;;4991073;28;20038;-61
2022/01/09 02:42:51;;;;;;;17.30;11.32;;;5.20;99.90;;;;;;4991350;28;20057;-60
2022/01/09 02:45:21;;;;;;;18.58;11.35;;;5.20;99.90;;;;;;4973931;28;20580;-61
2022/01/09 02:47:47;;;;;;;19.15;12.18;;;5.30;99.90;;;;;;4991208;28;20038;-60
2022/01/09 02:50:31;;;;;;;18.50;11.60;;;5.30;99.90;;;;;;4991017;28;20045;-61
2022/01/09 02:53:20;;;;;;;20.38;12.43;;;5.30;99.90;;;;;;4973291;28;20558;-60
2022/01/09 02:55:43;;;;;;;19.98;12.82;;;5.30;99.90;;;;;;4990360;28;20049;-60
2022/01/09 02:58:08;;;;;;;20.30;12.27;;;5.30;99.90;;;;;;4991134;28;20074;-61
2022/01/09 03:00:37;;;;;;;19.83;12.32;;;5.30;99.90;;;;;;4990781;28;20124;-61
2022/01/09 03:03:03;;;;;;;20.38;12.60;;;5.30;99.90;;;;;;4990847;28;20178;-61
2022/01/09 03:05:29;;;;;;;21.38;12.32;;;5.30;99.90;;;;;;4990621;28;20038;-61
2022/01/09 03:07:56;;;;;;;19.58;12.20;;;5.30;99.90;;;;;;4973457;28;20042;-61
2022/01/09 03:10:22;;;;;;;19.20;10.50;;;5.30;99.90;;;;;;4973040;28;20058;-62
2022/01/09 03:12:49;;;;;;;16.25;8.75;;;5.40;99.90;;;;;;4990861;28;20081;-61
2022/01/09 03:15:15;;;;;;;16.48;8.65;;;5.50;99.90;;;;;;4990671;28;20125;-60
2022/01/09 03:17:42;;;;;;;14.35;7.60;;;5.60;99.90;;;;;;4990493;28;20038;-61
2022/01/09 03:20:14;;;;;;;16.65;7.10;;;5.70;99.90;;;;;;4989908;28;20423;-61
2022/01/09 03:22:40;;;;;;;14.15;6.38;;;5.70;99.90;;;;;;4990609;28;20035;-62
2022/01/09 03:25:06;;;;;;;14.45;5.65;;;5.80;99.90;;;;;;4990493;28;20037;-61
2022/01/09 03:27:32;;;;;;;16.10;5.63;;;5.80;99.90;;;;;;4990300;28;20042;-61
2022/01/09 03:29:59;;;;;;;12.63;5.40;;;5.90;99.90;;;;;;4990214;28;20141;-61
2022/01/09 03:32:24;;;;;;;19.38;7.05;;;6.00;99.90;;;;;;4990098;28;20037;-61
2022/01/09 03:34:50;;;;;;;16.45;7.93;;;6.00;99.90;;;;;;4973044;28;20411;-62
2022/01/09 03:37:15;;;;;;;13.52;7.28;;;6.00;99.90;;;;;;4990464;28;20035;-61
2022/01/09 03:39:41;;;;;;;18.48;8.27;;;6.00;99.90;;;;;;4990203;28;20699;-62
2022/01/09 03:42:06;;;;;;;16.60;8.00;;;6.00;99.90;;;;;;5005608;28;20076;-62
2022/01/09 03:44:32;;;;;;;15.63;7.20;;;6.00;99.90;;;;;;5009731;28;20521;-62
2022/01/09 03:46:58;;;;;;;20.42;7.78;;;6.00;99.90;;;;;;4993761;28;20069;-62
2022/01/09 03:49:23;;;;;;;19.63;6.95;;;6.00;99.90;;;;;;4990215;28;20461;-60
2022/01/09 03:51:53;;;;;;;16.85;7.07;;;6.00;99.90;;;;;;4986138;28;20088;-62
2022/01/09 03:54:23;;;;;;;22.92;7.03;;;6.00;99.90;;;;;;5009475;28;20575;-61
2022/01/09 03:56:52;;;;;;;27.48;6.18;;;6.10;99.90;;;;;;4995332;28;20036;-61
2022/01/09 03:59:18;;;;;;;23.30;6.03;;;6.20;99.90;;;;;;4990098;28;20497;-62
2022/01/09 04:01:44;;;;;;;29.48;6.05;;;6.20;99.90;;;;;;4989821;28;20045;-61
2022/01/09 04:04:10;;;;;;;32.83;5.47;;;6.30;99.90;;;;;;4972422;28;20057;-62
2022/01/09 04:06:37;;;;;;;35.45;5.63;;;6.40;99.90;;;;;;5009800;28;20042;-62
2022/01/09 04:09:08;;;;;;;30.30;5.18;;;6.50;99.90;;;;;;5009581;28;20061;-61
2022/01/09 04:11:38;;;;;;;35.53;4.63;;;6.60;99.90;;;;;;4991866;28;20065;-62
2022/01/09 04:14:05;;;;;;;41.13;5.00;;;6.70;99.90;;;;;;5009301;28;20092;-62
2022/01/09 04:16:30;;;;;;;28.55;4.03;;;6.70;99.90;;;;;;5009605;28;20041;-61
2022/01/09 04:18:56;;;;;;;32.47;4.75;;;6.70;99.90;;;;;;5009504;28;20498;-62
2022/01/09 04:21:21;;;;;;;35.08;4.85;;;6.70;99.90;;;;;;5016911;23;20049;-61
2022/01/09 04:23:47;;;;;;;38.05;5.28;;;6.70;99.90;;;;;;5009913;28;20472;-62
2022/01/09 04:26:12;;;;;;;31.13;5.75;;;6.70;99.90;;;;;;4992040;28;20752;-62
2022/01/09 04:28:38;;;;;;;37.38;4.75;;;6.70;99.90;;;;;;5012559;28;20477;-61
2022/01/09 04:31:04;;;;;;;24.58;3.85;;;6.70;99.90;;;;;;5022856;28;20486;-61
2022/01/09 04:33:29;;;;;;;28.63;3.65;;;6.70;99.90;;;;;;5009254;28;20041;-62
2022/01/09 04:35:55;;;;;;;36.03;5.00;;;6.70;99.90;;;;;;5003962;28;20093;-62
2022/01/09 04:38:21;;;;;;;30.50;4.72;;;6.70;99.90;;;;;;4989934;28;20478;-62
2022/01/09 04:40:46;;;;;;;26.88;4.65;;;6.70;99.90;;;;;;5008324;28;20034;-61
2022/01/09 04:43:13;;;;;;;25.80;3.85;;;6.70;99.90;;;;;;4991217;28;20056;-61
2022/01/09 04:45:39;;;;;;;34.10;5.22;;;6.70;99.90;;;;;;5009010;28;20460;-61
2022/01/09 04:48:08;;;;;;;26.98;4.20;;;6.70;99.90;;;;;;5009320;28;20045;-61
2022/01/09 04:50:36;;;;;;;24.33;3.35;;;6.70;99.90;;;;;;5009045;28;20077;-62
2022/01/09 04:53:07;;;;;;;29.45;3.70;;;6.80;99.90;;;;;;5010616;28;20107;-62
2022/01/09 04:55:46;;;;;;;34.88;5.10;;;6.80;99.90;;;;;;5012818;28;20053;-61
2022/01/09 04:58:12;;;;;;;31.55;4.78;;;6.80;99.90;;;;;;5012945;28;20091;-61
2022/01/09 05:00:40;;;;;;;26.45;4.32;;;6.80;99.90;;;;;;4978843;28;20042;-61
2022/01/09 05:03:06;;;;;;;21.67;4.20;;;6.90;99.90;;;;;;5012435;28;20100;-61
2022/01/09 05:05:32;;;;;;;30.70;4.05;;;6.80;99.90;;;;;;5012577;28;20042;-62
2022/01/09 05:07:58;;;;;;;31.90;4.97;;;6.80;99.90;;;;;;5012592;28;20061;-62
2022/01/09 05:10:23;;;;;;;31.33;5.22;;;6.70;99.90;;;;;;5012161;28;20038;-61
2022/01/09 05:12:49;;;;;;;26.08;3.67;;;6.80;99.90;;;;;;5012502;28;20041;-61
2022/01/09 05:15:16;;;;;;;24.08;3.63;;;6.80;99.90;;;;;;5012540;28;20112;-61
2022/01/09 05:17:42;;;;;;;27.20;4.03;;;6.80;99.90;;;;;;4995044;28;20044;-61
2022/01/09 05:20:08;;;;;;;24.70;4.97;;;6.70;99.90;;;;;;4994822;28;20033;-62
2022/01/09 05:22:33;;;;;;;22.48;3.70;;;6.80;99.90;;;;;;4994487;28;20120;-62
2022/01/09 05:25:01;;;;;;;15.18;3.05;;;6.70;99.90;;;;;;4994713;28;20073;-61
2022/01/09 05:27:27;;;;;;;19.20;3.42;;;6.70;99.90;;;;;;5012566;28;20041;-62
2022/01/09 05:29:53;;;;;;;23.42;3.78;;;6.70;99.90;;;;;;5012308;28;20082;-62
2022/01/09 05:32:19;;;;;;;16.40;3.00;;;6.60;99.90;;;;;;5012050;28;20070;-62
2022/01/09 05:34:45;;;;;;;19.23;2.75;;;6.60;99.90;;;;;;5012037;28;20046;-61
2022/01/09 05:37:10;;;;;;;17.60;3.00;;;6.60;99.90;;;;;;5012045;28;20099;-62
2022/01/09 05:39:36;;;;;;;23.80;3.40;;;6.60;99.90;;;;;;5011930;28;20114;-61
2022/01/09 05:42:04;;;;;;;19.67;3.08;;;6.60;99.90;;;;;;5012225;28;20386;-62
2022/01/09 05:44:31;;;;;;;14.52;2.63;;;6.60;99.90;;;;;;5011896;28;20042;-61
2022/01/09 05:47:01;;;;;;;13.93;2.60;;;6.60;99.90;;;;;;5011996;28;20045;-61
2022/01/09 05:49:26;;;;;;;17.15;3.25;;;6.60;99.90;;;;;;5011918;28;20053;-61
2022/01/09 05:51:52;;;;;;;19.73;2.72;;;6.60;99.90;;;;;;5011729;28;20046;-61
2022/01/09 05:54:18;;;;;;;16.13;3.72;;;6.60;99.90;;;;;;5011324;28;20042;-62
2022/01/09 05:56:43;;;;;;;22.40;3.38;;;6.60;99.90;;;;;;5011646;28;20096;-61
2022/01/09 05:59:09;;;;;;;15.30;2.92;;;6.50;99.90;;;;;;5011771;28;20513;-61
2022/01/09 06:01:35;;;;;;;23.17;3.47;;;6.50;99.90;;;;;;5011836;28;20409;-62
2022/01/09 06:04:01;;;;;;;19.35;3.10;;;6.50;99.90;;;;;;4993234;28;20050;-61
2022/01/09 06:06:27;;;;;;;21.52;3.85;;;6.50;99.90;;;;;;5011425;28;20085;-61
2022/01/09 06:08:52;;;;;;;23.00;3.45;;;6.50;99.90;;;;;;5011293;28;20062;-61
2022/01/09 06:11:18;;;;;;;20.45;3.50;;;6.40;99.90;;;;;;5011436;28;20047;-62
2022/01/09 06:13:43;;;;;;;15.77;4.32;;;6.50;99.90;;;;;;5011535;28;20034;-61
2022/01/09 06:16:09;;;;;;;18.50;3.38;;;6.50;99.90;;;;;;5011429;28;20038;-61
2022/01/09 06:18:35;;;;;;;16.05;3.42;;;6.50;99.90;;;;;;5011224;28;20485;-61
2022/01/09 06:21:00;;;;;;;28.73;4.35;;;6.50;99.90;;;;;;5010991;28;20505;-61
2022/01/09 06:23:26;;;;;;;20.38;3.17;;;6.40;99.90;;;;;;5011088;28;20033;-61
2022/01/09 06:25:53;;;;;;;17.35;3.53;;;6.40;99.90;;;;;;5009637;28;20042;-61
2022/01/09 06:28:19;;;;;;;18.60;3.15;;;6.40;99.90;;;;;;5008611;28;20061;-61
2022/01/09 06:30:45;;;;;;;11.70;2.85;;;6.50;99.90;;;;;;5008423;28;20038;-61
2022/01/09 06:33:11;;;;;;;17.20;3.20;;;6.40;99.90;;;;;;5008354;28;20524;-61
2022/01/09 06:35:38;;;;;;;19.20;2.65;;;6.30;99.90;;;;;;5008444;28;20045;-61
2022/01/09 06:38:04;;;;;;;12.07;3.05;;;6.30;99.90;;;;;;5008261;28;20046;-61
2022/01/09 06:40:30;;;;;;;17.45;2.70;;;6.40;99.90;;;;;;5008273;28;20061;-62
2022/01/09 06:42:56;;;;;;;16.98;2.83;;;6.30;99.90;;;;;;5008240;28;20042;-61
2022/01/09 06:45:24;;;;;;;16.90;3.13;;;6.30;99.90;;;;;;5008266;28;20156;-61
2022/01/09 06:47:51;;;;;;;13.93;2.92;;;6.20;99.90;;;;;;4990667;28;20049;-61
2022/01/09 06:50:16;;;;;;;14.00;2.65;;;6.30;99.90;;;;;;5007972;28;20034;-62
2022/01/09 06:52:42;;;;;;;8.60;2.40;;;6.30;99.90;;;;;;5007687;28;20127;-61
2022/01/09 06:55:09;;;;;;;13.05;2.47;;;6.20;99.90;;;;;;5008029;28;20524;-61
2022/01/09 06:57:35;;;;;;;10.10;2.42;;;6.20;99.90;;;;;;5007849;28;20057;-62
2022/01/09 07:00:01;;;;;;;16.38;2.60;;;6.20;99.90;;;;;;5007993;28;20041;-62
2022/01/09 07:02:26;;;;;;;13.82;2.38;;;6.20;99.90;;;;;;5007769;28;20046;-61
2022/01/09 07:04:52;;;;;;;14.70;2.65;;;6.20;99.90;;;;;;5007968;28;20056;-62
2022/01/09 07:07:17;;;;;;;14.20;3.35;;;6.20;99.90;;;;;;5007679;28;20046;-61
2022/01/09 07:09:43;;;;;;;14.13;2.40;;;6.20;99.90;;;;;;5007788;28;20060;-61
2022/01/09 07:12:09;;;;;;;12.27;2.72;;;6.20;99.90;;;;;;4989842;28;20048;-64
2022/01/09 07:14:35;;;;;;;11.05;2.30;;;6.10;99.90;;;;;;5007702;28;20048;-61
2022/01/09 07:17:01;;;;;;;13.13;2.42;;;6.10;99.90;;;;;;5006825;28;20120;-61
2022/01/09 07:19:27;;;;;;;17.52;3.13;;;6.10;99.90;;;;;;5007593;28;20112;-62
2022/01/09 07:21:53;;;;;;;14.10;3.03;;;6.10;99.90;;;;;;4989597;28;20048;-61
2022/01/09 07:24:19;;;;;;;13.35;2.63;;;6.10;99.90;;;;;;5007649;28;20053;-61
2022/01/09 07:26:44;;;;;;;8.75;2.10;;;6.10;99.90;;;;;;5007452;28;20038;-62
2022/01/09 07:29:10;;;;;;;5.93;1.90;;;6.20;99.90;;;;;;5007547;28;20037;-61
2022/01/09 07:31:36;;;;;;;10.77;2.05;;;6.10;99.90;;;;;;5007111;28;20086;-61
2022/01/09 07:34:01;;;;;;;10.55;2.65;;;6.00;99.90;;;;;;5007154;28;20163;-62
2022/01/09 07:36:27;;;;;;;13.40;1.88;;;6.00;99.90;;;;;;5007226;28;20034;-61
2022/01/09 07:38:52;;;;;;;6.55;2.00;;;6.00;99.90;;;;;;5007524;28;20119;-61
2022/01/09 07:41:18;;;;;;;9.05;2.58;;;5.90;99.90;;;;;;5007249;28;20045;-61
2022/01/09 07:43:43;;;;;;;9.35;2.50;;;6.00;99.90;;;;;;5007137;28;20045;-61
2022/01/09 07:46:10;;;;;;;10.13;2.00;;;5.90;99.90;;;;;;5008520;28;20093;-61
2022/01/09 07:48:35;;;;;;;8.40;2.35;;;6.00;99.90;;;;;;5009176;28;20044;-61
2022/01/09 07:51:01;;;;;;;6.30;2.10;;;5.90;99.90;;;;;;4991816;28;20042;-59
2022/01/09 07:53:26;;;;;;;9.73;2.20;;;5.90;99.90;;;;;;4991777;28;20053;-62
2022/01/09 07:55:52;;;;;;;12.98;2.90;;;5.90;99.90;;;;;;5009698;28;20038;-62
2022/01/09 07:58:19;;;;;;;12.07;2.33;;;5.90;99.90;;;;;;5009589;28;20050;-62
2022/01/09 08:00:44;;;;;;;8.93;2.28;;;5.90;99.90;;;;;;5009439;28;20038;-63
2022/01/09 08:03:14;;;;;;;9.50;2.30;;;5.80;99.90;;;;;;5009401;28;20414;-63
2022/01/09 08:05:40;;;;;;;9.43;2.10;;;5.80;99.90;;;;;;5009733;28;20038;-62
2022/01/09 08:08:06;;;;;;;9.70;2.40;;;5.80;99.90;;;;;;4992394;28;20034;-61
2022/01/09 08:10:32;;;;;;;10.85;2.30;;;5.80;99.90;;;;;;5009435;28;20065;-61
2022/01/09 08:13:00;;;;;;;7.10;1.88;;;5.90;99.90;;;;;;5009292;28;20054;-61
2022/01/09 08:15:26;;;;;;;10.48;2.30;;;5.90;99.90;;;;;;5009576;28;20417;-61
2022/01/09 08:17:53;;;;;;;12.57;2.55;;;5.90;99.90;;;;;;5009479;28;20038;-62
2022/01/09 08:20:19;;;;;;;8.68;2.40;;;5.90;99.90;;;;;;5009512;28;20040;-62
2022/01/09 08:22:45;;;;;;;8.45;2.30;;;6.00;99.90;;;;;;4991315;28;20034;-62
2022/01/09 08:25:13;;;;;;;8.63;2.10;;;6.00;99.90;;;;;;5009611;28;20026;-61
2022/01/09 08:27:39;;;;;;;12.27;2.25;;;6.00;99.90;;;;;;5010683;28;20048;-61
2022/01/09 08:30:07;;;;;;;10.05;2.22;;;6.00;99.90;;;;;;5013256;28;20112;-61
2022/01/09 08:32:33;;;;;;;11.38;2.20;;;5.90;99.90;;;;;;4995040;28;20065;-63
2022/01/09 08:34:59;;;;;;;10.07;2.20;;;6.00;99.90;;;;;;5013321;28;20052;-61
2022/01/09 08:37:25;;;;;;;6.43;2.47;;;5.90;99.90;;;;;;5013412;28;20689;-60
2022/01/09 08:39:51;;;;;;;7.22;2.10;;;5.90;99.90;;;;;;5013307;28;20041;-61
2022/01/09 08:42:16;;;;;;;10.52;2.50;;;5.90;99.90;;;;;;5013063;28;20046;-62
2022/01/09 08:44:42;;;;;;;9.40;2.08;;;5.90;99.90;;;;;;5012795;28;20448;-61
2022/01/09 08:47:09;;;;;;;11.27;2.25;;;5.90;99.90;;;;;;4995300;28;20057;-62
2022/01/09 08:49:34;;;;;;;9.35;2.05;;;5.90;99.90;;;;;;5013197;28;20037;-62
2022/01/09 08:52:01;;;;;;;7.70;2.30;;;5.90;99.90;;;;;;5012771;28;20091;-62
2022/01/09 08:54:26;;;;;;;11.52;2.58;;;5.90;99.90;;;;;;5012808;28;20046;-62
2022/01/09 08:56:52;;;;;;;7.22;1.98;;;5.90;99.90;;;;;;5012989;28;20048;-62
2022/01/09 08:59:19;;;;;;;9.38;2.72;;;5.90;99.90;;;;;;5012879;28;20092;-61
2022/01/09 09:01:45;;;;;;;7.22;2.08;;;5.90;99.90;;;;;;5012009;28;20057;-61
2022/01/09 09:04:11;;;;;;;12.38;2.25;;;5.90;99.90;;;;;;5000754;28;20153;-61
2022/01/09 09:06:37;;;;;;;12.85;2.50;;;5.90;99.90;;;;;;5000971;28;20550;-62
2022/01/09 09:09:03;;;;;;;11.35;2.33;;;6.00;99.90;;;;;;5002906;28;20453;-62
2022/01/09 09:11:28;;;;;;;9.00;2.47;;;6.00;99.90;;;;;;4983501;28;20049;-62
2022/01/09 09:13:54;;;;;;;9.57;2.15;;;6.10;99.90;;;;;;5001171;28;20038;-62
2022/01/09 09:16:20;;;;;;;12.73;2.45;;;6.10;99.90;;;;;;5002067;28;20030;-62
2022/01/09 09:18:47;;;;;;;11.50;2.47;;;6.00;99.90;;;;;;5003486;28;20038;-63
2022/01/09 09:21:14;;;;;;;10.88;2.20;;;6.00;99.90;;;;;;5002830;28;20073;-62
2022/01/09 09:23:40;;;;;;;13.48;3.22;;;6.10;99.90;;;;;;5003209;28;20239;-62
2022/01/09 09:26:05;;;;;;;10.40;2.40;;;6.00;99.90;;;;;;5003176;28;20734;-62
2022/01/09 09:28:31;;;;;;;12.10;2.45;;;6.00;99.90;;;;;;5002590;28;20046;-62
2022/01/09 09:30:56;;;;;;;15.75;3.03;;;6.00;99.90;;;;;;4999879;28;20030;-62
2022/01/09 09:33:22;;;;;;;14.55;3.00;;;6.00;99.90;;;;;;5000259;28;20100;-62
2022/01/09 09:35:47;;;;;;;12.60;2.33;;;5.90;99.90;;;;;;5002159;28;20030;-62
2022/01/09 09:38:13;;;;;;;12.98;3.00;;;5.90;99.90;;;;;;5000553;28;20042;-62
2022/01/09 09:40:39;;;;;;;14.68;2.80;;;5.90;99.90;;;;;;5001604;28;20487;-61
2022/01/09 09:43:05;;;;;;;11.10;2.45;;;5.90;99.90;;;;;;5011564;28;20038;-62
2022/01/09 09:45:31;;;;;;;12.20;3.25;;;5.90;99.90;;;;;;5011734;28;20633;-62
2022/01/09 09:47:57;;;;;;;12.02;2.88;;;5.90;99.90;;;;;;5012077;28;20418;-62
2022/01/09 09:50:23;;;;;;;12.85;2.55;;;6.00;99.90;;;;;;5011779;28;20073;-62
2022/01/09 09:52:50;;;;;;;20.02;3.30;;;5.90;99.90;;;;;;5011679;28;20077;-62
2022/01/09 09:55:17;;;;;;;22.13;3.83;;;6.00;99.90;;;;;;5012026;28;20053;-62
2022/01/09 09:57:43;;;;;;;13.93;3.08;;;6.00;99.90;;;;;;4987190;28;20648;-62
2022/01/09 10:00:14;;;;;;;17.95;3.50;;;6.00;99.90;;;;;;4995868;28;20053;-62
2022/01/09 10:02:52;;;;;;;13.50;3.15;;;6.00;99.90;;;;;;4999415;28;20038;-62
2022/01/09 10:05:26;;;;;;;13.57;3.15;;;6.00;99.90;;;;;;4999961;28;20057;-63
2022/01/09 10:07:54;;;;;;;17.00;3.28;;;6.10;99.90;;;;;;5000091;28;20563;-62
2022/01/09 10:10:31;;;;;;;13.93;3.42;;;6.10;99.90;;;;;;5001327;28;20042;-64
2022/01/09 10:13:18;;;;;;;17.10;3.30;;;6.10;99.90;;;;;;5001508;28;20049;-64
2022/01/09 10:15:47;;;;;;;14.65;2.92;;;6.10;99.90;;;;;;4995211;28;20038;-64
2022/01/09 10:18:13;;;;;;;16.58;3.33;;;6.10;99.90;;;;;;4997765;28;20085;-64
2022/01/09 10:20:39;;;;;;;15.52;2.95;;;6.20;99.90;;;;;;4980490;28;20108;-64
2022/01/09 10:23:06;;;;;;;13.48;3.85;;;6.20;99.90;;;;;;5000703;28;20556;-65
2022/01/09 10:25:36;;;;;;;16.23;3.00;;;6.20;99.90;;;;;;4999152;28;20096;-64
2022/01/09 10:28:12;;;;;;;17.70;3.20;;;6.20;99.90;;;;;;4996555;28;20030;-64
2022/01/09 10:30:43;;;;;;;19.27;3.33;;;6.20;99.90;;;;;;4999107;28;20777;-63
2022/01/09 10:33:12;;;;;;;;;;;6.30;99.90;;;;;;5000679;28;20037;-64
2022/01/09 10:35:39;;;;;;;18.35;3.47;;;6.30;99.90;;;;;;5001372;28;19932;-64
2022/01/09 10:38:15;;;;;;;12.70;2.90;;;6.30;99.90;;;;;;4999489;28;20049;-64
2022/01/09 10:40:43;;;;;;;15.63;3.28;;;6.40;99.90;;;;;;4999506;28;20205;-63
2022/01/09 10:43:13;;;;;;;11.73;3.20;;;6.50;99.90;;;;;;5000139;28;20038;-64
2022/01/09 10:45:42;;;;;;;15.85;3.67;;;6.60;99.90;;;;;;5001276;28;20048;-64
2022/01/09 10:48:16;;;;;;;15.85;3.45;;;6.70;99.90;;;;;;4999423;28;20037;-63
2022/01/09 10:50:43;;;;;;;20.33;3.50;;;6.70;99.90;;;;;;4978575;28;20034;-63
2022/01/09 10:53:22;;;;;;;12.93;3.45;;;6.70;99.90;;;;;;4981549;28;20126;-63
2022/01/09 10:55:59;;;;;;;18.70;2.90;;;6.70;99.90;;;;;;4999053;28;20042;-64
2022/01/09 10:58:25;;;;;;;15.65;3.25;;;6.80;99.90;;;;;;4996497;28;20045;-64
2022/01/09 11:01:12;;;;;;;18.63;3.35;;;6.80;99.90;;;;;;4999759;28;20034;-64
2022/01/09 11:03:40;;;;;;;18.80;3.10;;;6.90;99.90;;;;;;5000213;28;20034;-64
2022/01/09 11:06:07;;;;;;;13.27;3.10;;;6.90;99.90;;;;;;5000216;28;20052;-64
2022/01/09 11:08:35;;;;;;;18.85;3.53;;;6.90;99.90;;;;;;4999463;28;20038;-63
2022/01/09 11:11:02;;;;;;;14.70;3.22;;;6.90;99.90;;;;;;4997410;28;20045;-63
2022/01/09 11:13:28;;;;;;;16.42;3.63;;;6.90;99.90;;;;;;4997544;28;20065;-63
2022/01/09 11:18:45;;;;;;;15.52;3.60;;;6.90;99.90;;;;;;4999696;28;20038;-63
2022/01/09 11:21:10;;;;;;;17.90;3.22;;;6.90;99.90;;;;;;4997722;28;20658;-63
2022/01/09 11:24:10;;;;;;;18.60;3.30;;;6.90;99.90;;;;;;4994992;28;20034;-63
2022/01/09 11:27:02;;;;;;;18.30;3.33;;;6.90;99.90;;;;;;4989324;28;20548;-64
2022/01/09 11:30:04;;;;;;;17.73;3.60;;;6.90;99.90;;;;;;4997358;28;20674;-64
2022/01/09 11:32:49;;;;;;;13.82;2.67;;;6.90;99.90;;;;;;5009415;28;20041;-63
2022/01/09 11:35:15;;;;;;;16.02;3.45;;;6.90;99.90;;;;;;5009658;28;20052;-64
2022/01/09 11:37:40;;;;;;;15.23;2.90;;;6.90;99.90;;;;;;5008956;28;20117;-64
2022/01/09 11:40:30;;;;;;;11.32;2.92;;;6.90;99.90;;;;;;5009354;28;20489;-64
2022/01/09 11:43:07;;;;;;;18.27;3.17;;;6.90;99.90;;;;;;5009189;28;20581;-64
2022/01/09 11:45:46;;;;;;;13.80;3.10;;;6.90;99.90;;;;;;5009524;28;20038;-63
2022/01/09 11:48:15;;;;;;;11.07;3.47;;;7.00;99.90;;;;;;5008642;28;20141;-64
2022/01/09 11:51:05;;;;;;;15.30;3.22;;;7.00;99.90;;;;;;5009738;28;20076;-64
2022/01/09 11:54:02;;;;;;;16.95;2.97;;;7.00;99.90;;;;;;5009216;28;20145;-64
2022/01/09 11:56:50;;;;;;;13.48;3.05;;;7.00;99.90;;;;;;4992153;28;20046;-64
2022/01/09 11:59:21;;;;;;;10.82;2.72;;;7.00;99.90;;;;;;4972288;28;20046;-64
2022/01/09 12:01:49;;;;;;;14.40;2.92;;;7.10;99.90;;;;;;4999410;28;20046;-64
2022/01/09 12:04:40;;;;;;;12.40;2.60;;;7.10;99.90;;;;;;5008650;28;20544;-64
2022/01/09 12:07:13;;;;;;;10.55;2.83;;;7.10;99.90;;;;;;5008346;28;20080;-64
2022/01/09 12:09:45;;;;;;;9.93;2.80;;;7.10;99.90;;;;;;5009119;28;20691;-64
2022/01/09 12:12:36;;;;;;;15.27;3.60;;;7.20;99.90;;;;;;4991627;28;20129;-64
2022/01/09 12:15:04;;;;;;;15.70;2.70;;;7.30;99.90;;;;;;5009211;28;20118;-64
2022/01/09 12:17:33;;;;;;;10.50;2.85;;;7.30;99.90;;;;;;5008095;28;20269;-64
2022/01/09 12:20:22;;;;;;;21.48;3.45;;;7.40;99.90;;;;;;5009113;28;20041;-64
2022/01/09 12:22:49;;;;;;;15.43;2.70;;;7.40;99.90;;;;;;5003717;28;20042;-64
2022/01/09 12:25:30;;;;;;;15.65;3.65;;;7.40;99.90;;;;;;4972142;28;20049;-64
2022/01/09 12:28:08;;;;;;;17.08;3.42;;;7.50;99.90;;;;;;4988595;28;20673;-64
2022/01/09 12:30:36;;;;;;;19.75;2.75;;;7.50;99.90;;;;;;4989509;28;20515;-65
2022/01/09 12:33:12;;;;;;;15.73;3.35;;;7.50;99.90;;;;;;4989332;28;20054;-64
2022/01/09 12:35:41;;;;;;;11.82;2.90;;;7.60;99.90;;;;;;4969710;28;20491;-65
2022/01/09 12:38:12;;;;;;;13.07;2.80;;;7.60;99.90;;;;;;4952021;28;20465;-63
2022/01/09 12:40:39;;;;;;;13.15;2.92;;;7.60;99.90;;;;;;4952337;28;20102;-64
2022/01/09 12:43:05;;;;;;;7.13;2.22;;;7.60;99.90;;;;;;4952371;28;20403;-64
2022/01/09 12:45:33;;;;;;;15.73;3.10;;;7.70;99.90;;;;;;4970131;28;20027;-64
2022/01/09 12:48:01;;;;;;;15.02;2.72;;;7.70;99.90;;;;;;4969467;28;20042;-65
2022/01/09 12:50:37;;;;;;;11.07;2.72;;;7.60;99.90;;;;;;4952259;28;20046;-64
2022/01/09 12:53:27;;;;;;;12.05;2.60;;;7.40;99.90;;;;;;4969560;28;20109;-65